createdAt,value
2023-01-15T00:02:10.593Z,12.80
2023-01-15T00:04:37.536Z,12.40
2023-01-15T00:07:05.072Z,13.43
2023-01-15T00:09:32.087Z,12.47
2023-01-15T00:11:59.070Z,13.07
2023-01-15T00:14:26.074Z,13.77
2023-01-15T00:16:53.867Z,13.57
2023-01-15T00:19:21.061Z,12.10
2023-01-15T00:21:48.100Z,13.07
2023-01-15T00:24:33.855Z,11.50
2023-01-15T00:27:19.371Z,12.03
2023-01-15T00:29:46.420Z,13.60
2023-01-15T00:32:13.416Z,13.63
2023-01-15T00:34:40.419Z,11.80
2023-01-15T00:37:07.473Z,14.10
2023-01-15T00:39:35.747Z,11.20
2023-01-15T00:42:03.638Z,12.67
2023-01-15T00:44:30.586Z,13.73
2023-01-15T00:46:57.562Z,13.57
2023-01-15T00:49:24.906Z,12.73
2023-01-15T00:51:51.931Z,10.77
2023-01-15T00:54:18.952Z,12.57
2023-01-15T00:56:46.749Z,11.20
2023-01-15T00:59:13.840Z,11.10
2023-01-15T01:01:42.761Z,11.27
2023-01-15T01:04:10.056Z,10.90
2023-01-15T01:06:37.136Z,12.30
2023-01-15T01:09:04.430Z,10.13
2023-01-15T01:11:34.595Z,11.03
2023-01-15T01:14:02.954Z,10.73
2023-01-15T01:16:37.548Z,11.13
2023-01-15T01:19:10.085Z,10.80
2023-01-15T01:21:43.292Z,10.30
2023-01-15T01:24:18.762Z,11.30
2023-01-15T01:26:48.213Z,10.50
2023-01-15T01:29:19.641Z,11.07
2023-01-15T01:31:46.977Z,10.47
2023-01-15T01:34:14.417Z,9.97
2023-01-15T01:36:44.121Z,11.30
2023-01-15T01:39:19.590Z,10.07
2023-01-15T01:41:47.773Z,10.90
2023-01-15T01:44:32.833Z,9.87
2023-01-15T01:47:02.385Z,10.33
2023-01-15T01:49:30.623Z,10.43
2023-01-15T01:52:04.341Z,11.03
2023-01-15T01:54:35.009Z,11.43
2023-01-15T01:57:03.371Z,11.93
2023-01-15T01:59:31.184Z,11.30
2023-01-15T02:01:58.406Z,10.50
2023-01-15T02:04:28.190Z,11.07
2023-01-15T02:06:56.023Z,10.80
2023-01-15T02:09:22.969Z,12.17
2023-01-15T02:11:55.882Z,12.25
2023-01-15T02:15:10.994Z,12.93
2023-01-15T02:17:50.300Z,12.10
2023-01-15T02:20:38.612Z,13.00
2023-01-15T02:23:28.576Z,12.17
2023-01-15T02:26:11.050Z,13.50
2023-01-15T02:28:49.158Z,13.30
2023-01-15T02:31:38.288Z,12.40
2023-01-15T02:34:28.093Z,11.70
2023-01-15T02:37:05.299Z,11.67
2023-01-15T02:39:35.258Z,13.37
2023-01-15T02:42:05.088Z,12.37
2023-01-15T02:44:34.279Z,12.50
2023-01-15T02:47:04.022Z,11.63
2023-01-15T02:49:33.115Z,12.03
2023-01-15T02:52:06.531Z,11.97
2023-01-15T02:54:45.864Z,12.73
2023-01-15T02:57:17.233Z,12.13
2023-01-15T02:59:49.475Z,11.77
2023-01-15T03:02:25.130Z,12.10
2023-01-15T03:05:08.618Z,13.00
2023-01-15T03:07:47.448Z,13.27
2023-01-15T03:10:15.573Z,12.93
2023-01-15T03:13:03.647Z,11.90
2023-01-15T03:16:24.099Z,12.93
2023-01-15T03:19:00.493Z,13.20
2023-01-15T03:21:45.674Z,15.20
2023-01-15T03:24:15.870Z,15.60
2023-01-15T03:26:42.830Z,17.53
2023-01-15T03:29:11.581Z,13.80
2023-01-15T03:31:38.742Z,14.33
2023-01-15T03:34:07.343Z,13.83
2023-01-15T03:36:35.503Z,15.60
2023-01-15T03:39:03.076Z,15.40
2023-01-15T03:41:36.334Z,13.27
2023-01-15T03:44:15.073Z,14.87
2023-01-15T03:47:14.795Z,13.83
2023-01-15T03:50:06.522Z,13.97
2023-01-15T03:52:54.829Z,13.90
2023-01-15T03:55:40.589Z,11.47
2023-01-15T03:58:24.831Z,14.63
2023-01-15T04:00:56.855Z,11.80
2023-01-15T04:03:29.040Z,12.93
2023-01-15T04:05:59.942Z,11.93
2023-01-15T04:08:32.820Z,11.97
2023-01-15T04:11:02.271Z,13.60
2023-01-15T04:13:31.509Z,12.67
2023-01-15T04:16:00.354Z,12.00
2023-01-15T04:18:28.680Z,13.60
2023-01-15T04:20:55.920Z,12.60
2023-01-15T04:23:23.850Z,14.20
2023-01-15T04:25:50.809Z,14.30
2023-01-15T04:28:17.853Z,13.23
2023-01-15T04:30:44.904Z,13.50
2023-01-15T04:33:12.306Z,13.50
2023-01-15T04:35:39.889Z,12.37
2023-01-15T04:38:06.899Z,12.27
2023-01-15T04:40:52.668Z,13.20
2023-01-15T04:43:38.430Z,11.47
2023-01-15T04:46:05.484Z,12.80
2023-01-15T04:48:32.486Z,11.70
2023-01-15T04:51:04.678Z,13.00
2023-01-15T04:53:32.242Z,11.80
2023-01-15T04:56:04.337Z,12.17
2023-01-15T04:58:33.180Z,12.30
2023-01-15T05:01:05.206Z,11.50
2023-01-15T05:03:32.494Z,11.50
2023-01-15T05:06:04.028Z,12.07
2023-01-15T05:08:31.129Z,10.70
2023-01-15T05:11:05.240Z,11.57
2023-01-15T05:13:34.010Z,10.03
2023-01-15T05:16:15.977Z,9.20
2023-01-15T05:18:45.332Z,10.73
2023-01-15T05:21:25.210Z,10.70
2023-01-15T05:23:55.709Z,10.40
2023-01-15T05:26:24.278Z,12.00
2023-01-15T05:28:55.630Z,11.27
2023-01-15T05:31:24.496Z,11.50
2023-01-15T05:33:53.219Z,10.90
2023-01-15T05:36:24.914Z,10.30
2023-01-15T05:38:53.183Z,10.40
2023-01-15T05:41:42.433Z,10.73
2023-01-15T05:44:12.414Z,10.37
2023-01-15T05:46:42.494Z,11.27
2023-01-15T05:49:16.319Z,11.60
2023-01-15T05:51:44.883Z,9.97
2023-01-15T05:54:16.518Z,10.87
2023-01-15T05:56:45.880Z,10.50
2023-01-15T05:59:16.933Z,10.57
2023-01-15T06:01:44.525Z,10.20
2023-01-15T06:04:16.104Z,11.03
2023-01-15T06:06:43.867Z,10.87
2023-01-15T06:09:11.132Z,12.30
2023-01-15T06:11:38.215Z,11.17
2023-01-15T06:14:06.015Z,10.37
2023-01-15T06:16:33.615Z,11.03
2023-01-15T06:19:05.843Z,10.90
2023-01-15T06:21:34.921Z,10.33
2023-01-15T06:24:02.664Z,9.93
2023-01-15T06:26:29.715Z,15.37
2023-01-15T06:28:56.725Z,16.07
2023-01-15T06:31:26.930Z,15.47
2023-01-15T06:33:54.636Z,13.70
2023-01-15T06:36:24.584Z,14.17
2023-01-15T06:38:52.184Z,14.77
2023-01-15T06:41:44.100Z,13.60
2023-01-15T06:44:36.090Z,15.77
2023-01-15T06:47:23.863Z,14.80
2023-01-15T06:49:58.422Z,14.60
2023-01-15T06:52:28.878Z,13.80
2023-01-15T06:54:56.005Z,13.00
2023-01-15T06:57:23.643Z,13.10
2023-01-15T06:59:51.571Z,12.67
2023-01-15T07:02:18.770Z,12.23
2023-01-15T07:04:48.172Z,13.20
2023-01-15T07:07:17.321Z,14.03
2023-01-15T07:09:44.996Z,14.20
2023-01-15T07:12:12.504Z,16.63
2023-01-15T07:14:39.577Z,15.53
2023-01-15T07:17:06.873Z,14.23
2023-01-15T07:19:33.860Z,15.50
2023-01-15T07:22:00.809Z,21.07
2023-01-15T07:24:27.858Z,16.73
2023-01-15T07:26:55.016Z,14.40
2023-01-15T07:29:23.478Z,15.00
2023-01-15T07:31:51.703Z,22.50
2023-01-15T07:34:19.224Z,26.80
2023-01-15T07:36:46.390Z,17.87
2023-01-15T07:39:13.605Z,19.37
2023-01-15T07:41:59.499Z,19.30
2023-01-15T07:44:45.376Z,13.90
2023-01-15T07:47:44.058Z,14.20
2023-01-15T07:50:21.976Z,15.30
2023-01-15T07:52:49.475Z,14.67
2023-01-15T07:55:17.441Z,15.53
2023-01-15T07:57:44.996Z,13.30
2023-01-15T08:00:16.992Z,13.40
2023-01-15T08:02:46.196Z,11.20
2023-01-15T08:05:13.189Z,11.60
2023-01-15T08:07:41.868Z,11.30
2023-01-15T08:10:13.187Z,10.90
2023-01-15T08:12:59.160Z,14.30
2023-01-15T08:15:27.243Z,11.43
2023-01-15T08:17:54.593Z,11.00
2023-01-15T08:20:25.790Z,12.90
2023-01-15T08:22:53.396Z,10.97
2023-01-15T08:25:24.824Z,10.40
2023-01-15T08:27:53.166Z,13.60
2023-01-15T08:30:24.577Z,14.87
2023-01-15T08:32:51.853Z,14.17
2023-01-15T08:35:19.073Z,13.30
2023-01-15T08:37:46.131Z,15.80
2023-01-15T08:40:13.659Z,16.30
2023-01-15T08:42:41.230Z,23.80
2023-01-15T08:45:09.506Z,18.30
2023-01-15T08:47:37.513Z,15.43
2023-01-15T08:50:07.672Z,15.00
2023-01-15T08:52:34.824Z,13.13
2023-01-15T08:55:01.831Z,26.40
2023-01-15T08:57:28.785Z,14.10
2023-01-15T08:59:55.760Z,13.30
2023-01-15T09:02:22.834Z,15.33
2023-01-15T09:04:49.904Z,15.03
2023-01-15T09:07:17.141Z,15.07
2023-01-15T09:09:44.199Z,14.87
2023-01-15T09:12:11.207Z,14.40
2023-01-15T09:14:55.484Z,13.60
2023-01-15T09:17:25.206Z,12.60
2023-01-15T09:19:52.265Z,13.60
2023-01-15T09:22:19.210Z,13.93
2023-01-15T09:24:46.707Z,13.80
2023-01-15T09:27:14.169Z,14.50
2023-01-15T09:29:41.081Z,13.43
2023-01-15T09:32:10.095Z,13.47
2023-01-15T09:34:37.117Z,14.27
2023-01-15T09:37:04.271Z,15.73
2023-01-15T09:39:31.873Z,14.80
2023-01-15T09:42:38.495Z,13.90
2023-01-15T09:45:19.342Z,14.97
2023-01-15T09:48:18.181Z,13.40
2023-01-15T09:51:11.830Z,10.80
2023-01-15T09:54:13.448Z,12.87
2023-01-15T09:56:40.731Z,11.40
2023-01-15T09:59:38.326Z,10.23
2023-01-15T10:02:33.522Z,11.47
2023-01-15T10:05:11.734Z,11.07
2023-01-15T10:07:51.164Z,12.50
2023-01-15T10:10:24.087Z,12.20
2023-01-15T10:13:04.327Z,13.10
2023-01-15T10:15:44.667Z,13.07
2023-01-15T10:18:24.633Z,9.07
2023-01-15T10:21:08.245Z,8.73
2023-01-15T10:24:03.024Z,9.77
2023-01-15T10:26:40.837Z,9.33
2023-01-15T10:29:35.276Z,8.67
2023-01-15T10:32:14.083Z,8.57
2023-01-15T10:35:25.053Z,10.30
2023-01-15T10:37:54.831Z,10.30
2023-01-15T10:40:46.621Z,9.93
2023-01-15T10:43:19.546Z,8.00
2023-01-15T10:46:15.274Z,8.50
2023-01-15T10:48:47.091Z,8.43
2023-01-15T10:51:44.697Z,8.13
2023-01-15T10:54:14.561Z,9.00
2023-01-15T10:57:11.450Z,8.00
2023-01-15T10:59:58.864Z,8.50
2023-01-15T11:03:02.503Z,8.57
2023-01-15T11:05:31.549Z,8.80
2023-01-15T11:08:39.386Z,8.43
2023-01-15T11:10:46.657Z,8.00
2023-01-15T11:13:44.732Z,7.87
2023-01-15T11:16:37.767Z,7.30
2023-01-15T11:19:26.075Z,6.90
2023-01-15T11:21:54.353Z,5.70
2023-01-15T11:24:21.586Z,6.90
2023-01-15T11:26:52.325Z,9.37
2023-01-15T11:29:35.253Z,8.70
2023-01-15T11:32:02.566Z,8.63
2023-01-15T11:34:29.626Z,8.57
2023-01-15T11:37:05.550Z,9.90
2023-01-15T11:39:33.258Z,9.67
2023-01-15T11:42:35.398Z,9.40
2023-01-15T11:45:21.288Z,9.33
2023-01-15T11:48:14.697Z,8.27
2023-01-15T11:51:03.241Z,8.50
2023-01-15T11:53:38.043Z,8.80
2023-01-15T11:56:10.524Z,9.50
2023-01-15T11:58:49.408Z,9.07
2023-01-15T12:01:33.622Z,9.00
2023-01-15T12:04:19.839Z,9.30
2023-01-15T12:06:46.911Z,13.20
2023-01-15T12:09:47.536Z,16.60
2023-01-15T12:12:28.373Z,11.10
2023-01-15T12:15:25.644Z,11.40
2023-01-15T12:18:01.971Z,9.70
2023-01-15T12:21:16.797Z,9.33
2023-01-15T12:24:25.316Z,9.93
2023-01-15T12:27:24.158Z,9.03
2023-01-15T12:30:06.968Z,10.60
2023-01-15T12:32:43.795Z,12.30
2023-01-15T12:35:47.854Z,10.43
2023-01-15T12:38:53.949Z,10.80
2023-01-15T12:41:53.972Z,11.27
2023-01-15T12:45:01.142Z,12.90
2023-01-15T12:48:09.448Z,13.77
2023-01-15T12:50:49.236Z,11.40
2023-01-15T12:53:43.812Z,10.87
2023-01-15T12:56:19.621Z,11.20
2023-01-15T12:59:10.878Z,11.97
2023-01-15T13:02:10.433Z,13.20
2023-01-15T13:04:59.351Z,11.20
2023-01-15T13:07:52.334Z,12.60
2023-01-15T13:10:34.665Z,11.30
2023-01-15T13:13:24.798Z,9.50
2023-01-15T13:16:06.189Z,9.73
2023-01-15T13:19:08.267Z,8.30
2023-01-15T13:21:37.624Z,9.90
2023-01-15T13:24:32.460Z,9.57
2023-01-15T13:27:18.929Z,9.03
2023-01-15T13:29:51.662Z,7.23
2023-01-15T13:32:25.184Z,6.13
2023-01-15T13:35:06.945Z,2.67
2023-01-15T13:37:46.026Z,2.13
2023-01-15T13:40:36.741Z,1.97
2023-01-15T13:43:07.064Z,1.80
2023-01-15T13:45:43.975Z,1.43
2023-01-15T13:48:41.317Z,1.50
2023-01-15T13:51:30.848Z,1.03
2023-01-15T13:54:01.111Z,0.93
2023-01-15T13:56:37.149Z,1.13
2023-01-15T13:59:37.366Z,1.10
2023-01-15T14:02:24.836Z,1.13
2023-01-15T14:04:53.052Z,1.10
2023-01-15T14:07:31.404Z,1.00
2023-01-15T14:10:27.464Z,1.43
2023-01-15T14:13:14.098Z,1.30
2023-01-15T14:16:03.064Z,1.00
2023-01-15T14:19:19.984Z,1.27
2023-01-15T14:22:33.679Z,1.23
2023-01-15T14:25:53.639Z,1.50
2023-01-15T14:29:01.308Z,1.00
2023-01-15T14:32:17.465Z,1.20
2023-01-15T14:34:44.664Z,1.20
2023-01-15T14:37:45.453Z,1.27
2023-01-15T14:40:42.278Z,1.30
2023-01-15T14:43:19.555Z,1.20
2023-01-15T14:45:50.230Z,1.30
2023-01-15T14:48:29.162Z,1.20
2023-01-15T14:51:24.259Z,1.40
2023-01-15T14:54:16.422Z,1.20
2023-01-15T14:56:57.461Z,1.40
2023-01-15T14:59:36.826Z,1.93
2023-01-15T15:02:21.216Z,1.47
2023-01-15T15:04:54.630Z,1.10
2023-01-15T15:07:28.701Z,1.57
2023-01-15T15:10:27.864Z,1.27
2023-01-15T15:13:19.063Z,1.90
2023-01-15T15:16:06.127Z,1.53
2023-01-15T15:18:44.236Z,1.60
2023-01-15T15:21:16.915Z,1.80
2023-01-15T15:23:53.690Z,1.70
2023-01-15T15:26:33.463Z,1.67
2023-01-15T15:29:10.431Z,1.80
2023-01-15T15:32:00.359Z,1.40
2023-01-15T15:34:34.201Z,2.13
2023-01-15T15:37:07.594Z,1.93
2023-01-15T15:39:57.831Z,1.40
2023-01-15T15:42:58.943Z,1.50
2023-01-15T15:45:48.295Z,1.13
2023-01-15T15:48:42.882Z,1.40
2023-01-15T15:51:32.536Z,1.70
2023-01-15T15:54:16.441Z,1.87
2023-01-15T15:56:59.678Z,1.60
2023-01-15T15:59:36.152Z,1.83
2023-01-15T16:02:25.220Z,2.33
2023-01-15T16:04:56.026Z,1.80
2023-01-15T16:07:34.741Z,2.20
2023-01-15T16:10:24.376Z,2.10
2023-01-15T16:12:55.218Z,1.87
2023-01-15T16:15:30.554Z,1.60
2023-01-15T16:18:00.517Z,1.67
2023-01-15T16:20:28.605Z,1.60
2023-01-15T16:23:00.169Z,1.47
2023-01-15T16:25:38.801Z,1.60
2023-01-15T16:28:06.310Z,2.00
2023-01-15T16:30:34.016Z,1.90
2023-01-15T16:33:06.790Z,2.10
2023-01-15T16:35:38.584Z,2.60
2023-01-15T16:38:07.712Z,9.50
2023-01-15T16:40:40.293Z,7.00
2023-01-15T16:43:49.353Z,9.47
2023-01-15T16:46:19.780Z,4.70
2023-01-15T16:48:48.735Z,4.00
2023-01-15T16:51:34.821Z,3.17
2023-01-15T16:54:05.489Z,2.47
2023-01-15T16:56:38.045Z,2.27
2023-01-15T16:59:16.101Z,2.80
2023-01-15T17:01:46.644Z,4.30
2023-01-15T17:04:36.339Z,4.17
2023-01-15T17:07:20.951Z,2.60
2023-01-15T17:09:55.787Z,2.57
2023-01-15T17:12:36.448Z,2.20
2023-01-15T17:15:15.257Z,2.70
2023-01-15T17:17:47.390Z,3.33
2023-01-15T17:20:16.796Z,2.90
2023-01-15T17:22:46.928Z,2.40
2023-01-15T17:25:34.944Z,2.23
2023-01-15T17:28:03.932Z,2.57
2023-01-15T17:30:33.448Z,2.40
2023-01-15T17:33:04.179Z,2.40
2023-01-15T17:35:37.622Z,1.77
2023-01-15T17:38:06.902Z,2.80
2023-01-15T17:40:34.704Z,2.50
2023-01-15T17:43:02.120Z,2.20
2023-01-15T17:45:32.609Z,2.20
2023-01-15T17:47:59.790Z,1.57
2023-01-15T17:50:26.854Z,2.67
2023-01-15T17:52:53.780Z,2.27
2023-01-15T17:55:43.057Z,2.13
2023-01-15T17:58:33.380Z,2.07
2023-01-15T18:01:24.008Z,1.90
2023-01-15T18:04:12.388Z,2.07
2023-01-15T18:06:45.690Z,1.97
2023-01-15T18:09:13.597Z,1.80
2023-01-15T18:11:40.707Z,2.27
2023-01-15T18:14:07.946Z,2.17
2023-01-15T18:16:35.267Z,3.83
2023-01-15T18:19:02.181Z,4.43
2023-01-15T18:21:29.152Z,3.50
2023-01-15T18:23:56.481Z,2.57
2023-01-15T18:26:23.383Z,3.27
2023-01-15T18:28:51.207Z,3.53
2023-01-15T18:31:18.182Z,3.30
2023-01-15T18:33:45.860Z,3.50
2023-01-15T18:36:15.092Z,2.93
2023-01-15T18:38:43.971Z,2.33
2023-01-15T18:41:34.656Z,2.07
2023-01-15T18:44:21.423Z,2.17
2023-01-15T18:46:52.930Z,2.20
2023-01-15T18:49:20.398Z,2.10
2023-01-15T18:52:12.926Z,1.77
2023-01-15T18:54:41.617Z,1.87
2023-01-15T18:57:08.713Z,1.57
2023-01-15T18:59:35.741Z,1.70
2023-01-15T19:02:02.972Z,2.27
2023-01-15T19:04:31.044Z,1.80
2023-01-15T19:06:58.325Z,1.30
2023-01-15T19:09:25.802Z,1.50
2023-01-15T19:11:53.951Z,1.50
2023-01-15T19:14:41.566Z,1.30
2023-01-15T19:17:40.659Z,2.13
2023-01-15T19:20:11.411Z,1.80
2023-01-15T19:22:57.206Z,1.73
2023-01-15T19:25:26.115Z,1.60
2023-01-15T19:27:53.950Z,2.10
2023-01-15T19:30:22.512Z,1.30
2023-01-15T19:32:49.476Z,1.70
2023-01-15T19:35:16.881Z,1.77
2023-01-15T19:37:43.906Z,1.57
2023-01-15T19:40:17.036Z,2.17
2023-01-15T19:43:02.343Z,1.73
2023-01-15T19:45:48.057Z,1.77
2023-01-15T19:48:35.971Z,1.83
2023-01-15T19:51:02.987Z,1.97
2023-01-15T19:53:29.994Z,2.33
2023-01-15T19:55:56.991Z,1.40
2023-01-15T19:58:24.025Z,2.13
2023-01-15T20:00:53.282Z,1.13
2023-01-15T20:03:20.878Z,1.50
2023-01-15T20:05:48.257Z,1.63
2023-01-15T20:08:18.904Z,1.50
2023-01-15T20:10:49.537Z,2.10
2023-01-15T20:13:42.109Z,2.00
2023-01-15T20:16:22.239Z,2.10
2023-01-15T20:18:51.858Z,1.57
2023-01-15T20:21:19.411Z,1.63
2023-01-15T20:23:46.828Z,1.93
2023-01-15T20:26:15.418Z,1.97
2023-01-15T20:28:43.257Z,1.40
2023-01-15T20:31:19.066Z,1.60
2023-01-15T20:33:47.744Z,1.60
2023-01-15T20:36:15.173Z,1.27
2023-01-15T20:38:42.277Z,1.70
2023-01-15T20:41:29.784Z,1.10
2023-01-15T20:44:15.197Z,1.73
2023-01-15T20:46:42.243Z,2.00
2023-01-15T20:49:27.759Z,1.70
2023-01-15T20:51:56.655Z,2.23
2023-01-15T20:54:26.249Z,2.60
2023-01-15T20:56:53.566Z,1.83
2023-01-15T20:59:20.672Z,1.50
2023-01-15T21:01:47.802Z,1.90
2023-01-15T21:04:14.990Z,1.97
2023-01-15T21:06:42.143Z,2.00
2023-01-15T21:09:09.122Z,1.50
2023-01-15T21:11:36.100Z,2.03
2023-01-15T21:14:03.964Z,2.30
2023-01-15T21:16:31.229Z,2.63
2023-01-15T21:19:01.270Z,3.27
2023-01-15T21:21:28.253Z,2.70
2023-01-15T21:23:55.229Z,2.90
2023-01-15T21:26:24.698Z,1.83
2023-01-15T21:28:55.617Z,1.90
2023-01-15T21:31:23.275Z,2.43
2023-01-15T21:33:54.619Z,2.43
2023-01-15T21:36:22.458Z,3.10
2023-01-15T21:38:58.917Z,4.10
2023-01-15T21:41:46.003Z,3.37
2023-01-15T21:44:30.912Z,2.70
2023-01-15T21:47:03.691Z,1.60
2023-01-15T21:49:33.315Z,1.40
2023-01-15T21:52:03.647Z,2.00
2023-01-15T21:54:32.149Z,1.60
2023-01-15T21:57:00.036Z,1.63
2023-01-15T21:59:27.064Z,1.63
2023-01-15T22:01:56.106Z,1.70
2023-01-15T22:04:27.268Z,1.87
2023-01-15T22:06:55.312Z,1.80
2023-01-15T22:09:22.924Z,2.00
2023-01-15T22:11:50.369Z,2.00
2023-01-15T22:14:24.884Z,1.87
2023-01-15T22:16:54.062Z,2.30
2023-01-15T22:19:24.483Z,2.00
2023-01-15T22:21:54.295Z,2.10
2023-01-15T22:24:25.824Z,2.13
2023-01-15T22:26:56.066Z,1.67
2023-01-15T22:29:25.909Z,2.27
2023-01-15T22:31:53.516Z,2.63
2023-01-15T22:34:21.981Z,1.90
2023-01-15T22:36:51.217Z,2.03
2023-01-15T22:39:19.227Z,1.63
2023-01-15T22:42:05.183Z,2.30
2023-01-15T22:44:33.518Z,2.97
2023-01-15T22:47:01.502Z,2.50
2023-01-15T22:49:29.388Z,2.00
2023-01-15T22:51:56.905Z,2.37
2023-01-15T22:54:24.153Z,2.20
2023-01-15T22:56:51.133Z,1.77
2023-01-15T22:59:18.236Z,2.20
2023-01-15T23:01:45.481Z,2.43
2023-01-15T23:04:16.503Z,2.17
2023-01-15T23:06:44.595Z,2.87
2023-01-15T23:09:13.472Z,2.30
2023-01-15T23:11:41.169Z,1.90
2023-01-15T23:14:11.536Z,2.87
2023-01-15T23:16:39.172Z,1.70
2023-01-15T23:19:06.417Z,2.20
2023-01-15T23:21:34.003Z,1.70
2023-01-15T23:24:02.608Z,2.43
2023-01-15T23:26:33.865Z,1.70
2023-01-15T23:29:01.107Z,1.67
2023-01-15T23:31:28.823Z,1.80
2023-01-15T23:33:57.049Z,1.60
2023-01-15T23:36:24.518Z,1.80
2023-01-15T23:38:51.541Z,2.33
2023-01-15T23:41:41.261Z,2.43
2023-01-15T23:44:38.892Z,1.90
2023-01-15T23:47:08.268Z,2.10
2023-01-15T23:49:35.451Z,1.77
2023-01-15T23:52:03.079Z,2.30
2023-01-15T23:54:31.885Z,1.80
2023-01-15T23:57:01.102Z,1.83
2023-01-15T23:59:28.930Z,1.73
